KBIX/BIX METAR and TAF weather

Enter ICAO airport designator
Station Type Date Time Source
KBIX METAR 2019/04/25 22:10 UTC NOAA

KBIX 252210Z AUTO 08006KT 10SM SCT055 19/18 A2974 RMK AO2 LTG DSNT S RAE2156RAB2158E10 PRESRR SLP074


Station Type Date Time Source
KBIX Decoded METAR 2019/04/25 22:10 UTC NOAA

Keesler Air Force Base / Biloxi, MS, United States (KBIX) 30-25N 088-55W
Apr 25, 2019 - 06:10 PM EDT / 2019.04.25 2210 UTC
Wind: from the E (080 degrees) at 7 MPH (6 KT):0
Visibility: 10 mile(s):0
Sky conditions: partly cloudy
Weather: Lightning observed
Temperature: 66 F (19 C)
Dew Point: 64 F (18 C)
Relative Humidity: 93%
Pressure (altimeter): 29.74 in. Hg (1007 hPa)
Pressure tendency: rising rapidly
ob: KBIX 252210Z AUTO 08006KT 10SM SCT055 19/18 A2974 RMK AO2 LTG DSNT S RAE2156RAB2158E10 PRESRR SLP074
cycle: 22

Station Type Date Time Source
KBIX TAF 2019/04/25 20:55 UTC NOAA

TAF
AMD KBIX 252034Z 2520/2624 26012KT 8000 -SHRA SCT007 BKN012 OVC040 QNH2981INS
TEMPO 2520/2523 25025G35KT 1600 +TSRAGR BKN007CB OVC010
BECMG 2522/2523 27015G25KT 8000 -SHRA SCT010 SCT018 BKN030 QNH2980INS
BECMG 2607/2608 30010KT 9999 NSW SCT030 QNH2987INS
BECMG 2615/2616 32012G18KT 9999 SKC QNH2995INS TX24/2520Z TN19/2611Z

Example: see airport list